createdAt,value
2023-05-07T00:01:36.133Z,74.58
2023-05-07T00:04:24.684Z,74.72
2023-05-07T00:07:13.047Z,74.83
2023-05-07T00:10:01.377Z,74.54
2023-05-07T00:12:49.734Z,74.88
2023-05-07T00:15:38.122Z,74.50
2023-05-07T00:18:27.813Z,74.74
2023-05-07T00:21:16.265Z,74.49
2023-05-07T00:24:04.870Z,74.42
2023-05-07T00:26:53.790Z,74.81
2023-05-07T00:29:42.136Z,74.42
2023-05-07T00:32:30.504Z,74.51
2023-05-07T00:35:20.222Z,74.64
2023-05-07T00:38:08.594Z,75.57
2023-05-07T00:40:57.037Z,75.38
2023-05-07T00:43:45.965Z,76.02
2023-05-07T00:46:35.171Z,75.65
2023-05-07T00:49:23.813Z,75.92
2023-05-07T00:52:16.443Z,75.91
2023-05-07T00:55:07.929Z,76.16
2023-05-07T00:57:56.331Z,75.75
2023-05-07T01:00:44.818Z,75.80
2023-05-07T01:03:33.152Z,75.70
2023-05-07T01:06:22.772Z,76.41
2023-05-07T01:09:12.701Z,76.26
2023-05-07T01:12:01.307Z,76.21
2023-05-07T01:14:50.824Z,76.60
2023-05-07T01:17:41.529Z,76.74
2023-05-07T01:20:35.202Z,76.68
2023-05-07T01:23:25.653Z,76.66
2023-05-07T01:26:14.031Z,76.27
2023-05-07T01:29:04.303Z,76.72
2023-05-07T01:31:53.900Z,77.10
2023-05-07T01:34:42.623Z,77.03
2023-05-07T01:37:31.329Z,76.89
2023-05-07T01:40:21.426Z,76.94
2023-05-07T01:43:10.575Z,76.90
2023-05-07T01:46:00.169Z,76.83
2023-05-07T01:48:49.257Z,76.45
2023-05-07T01:51:37.911Z,76.61
2023-05-07T01:54:28.872Z,77.21
2023-05-07T01:57:19.673Z,77.23
2023-05-07T02:00:10.255Z,77.75
2023-05-07T02:03:06.644Z,77.35
2023-05-07T02:06:02.924Z,77.82
2023-05-07T02:08:57.198Z,77.72
2023-05-07T02:11:45.617Z,77.94
2023-05-07T02:14:35.948Z,77.62
2023-05-07T02:17:24.397Z,77.93
2023-05-07T02:20:14.500Z,77.85
2023-05-07T02:23:03.973Z,77.57
2023-05-07T02:25:53.145Z,77.91
2023-05-07T02:28:41.509Z,78.38
2023-05-07T02:31:31.334Z,78.67
2023-05-07T02:34:20.107Z,78.08
2023-05-07T02:37:08.489Z,78.10
2023-05-07T02:39:57.117Z,77.71
2023-05-07T02:42:45.498Z,77.89
2023-05-07T02:45:34.450Z,78.38
2023-05-07T02:48:25.452Z,78.69
2023-05-07T02:51:13.840Z,78.67
2023-05-07T02:54:04.216Z,78.79
2023-05-07T02:56:54.018Z,78.86
2023-05-07T02:59:42.356Z,78.78
2023-05-07T03:02:30.851Z,79.00
2023-05-07T03:05:20.640Z,78.52
2023-05-07T03:08:09.057Z,78.71
2023-05-07T03:10:57.446Z,78.94
2023-05-07T03:13:46.200Z,79.21
2023-05-07T03:16:34.608Z,79.05
2023-05-07T03:19:22.958Z,78.66
2023-05-07T03:22:12.622Z,78.73
2023-05-07T03:25:01.005Z,79.19
2023-05-07T03:27:49.292Z,78.88
2023-05-07T03:30:41.071Z,79.32
2023-05-07T03:33:29.432Z,79.60
2023-05-07T03:36:18.921Z,79.57
2023-05-07T03:39:08.928Z,80.23
2023-05-07T03:42:01.811Z,80.30
2023-05-07T03:44:51.394Z,80.07
2023-05-07T03:47:40.207Z,79.92
2023-05-07T03:50:30.747Z,79.32
2023-05-07T03:53:19.293Z,79.81
2023-05-07T03:56:09.687Z,80.04
2023-05-07T03:59:00.994Z,79.78
2023-05-07T04:01:49.741Z,79.80
2023-05-07T04:04:40.347Z,80.06
2023-05-07T04:07:29.775Z,80.65
2023-05-07T04:10:18.650Z,79.97
2023-05-07T04:13:11.023Z,80.30
2023-05-07T04:16:01.045Z,80.29
2023-05-07T04:18:50.504Z,80.15
2023-05-07T04:21:39.269Z,80.31
2023-05-07T04:24:27.735Z,80.05
2023-05-07T04:27:16.774Z,79.99
2023-05-07T04:30:08.072Z,79.74
2023-05-07T04:33:00.275Z,79.87
2023-05-07T04:35:51.452Z,80.54
2023-05-07T04:38:40.085Z,80.43
2023-05-07T04:41:28.712Z,80.64
2023-05-07T04:44:17.835Z,80.92
2023-05-07T04:47:08.692Z,80.75
2023-05-07T04:49:57.294Z,80.92
2023-05-07T04:52:46.293Z,81.21
2023-05-07T04:55:35.455Z,80.56
2023-05-07T04:58:24.300Z,81.48
2023-05-07T05:01:12.789Z,81.59
2023-05-07T05:04:03.609Z,81.85
2023-05-07T05:06:52.218Z,81.80
2023-05-07T05:09:40.624Z,82.08
2023-05-07T05:12:29.689Z,81.86
2023-05-07T05:15:18.405Z,81.78
2023-05-07T05:18:06.994Z,82.04
2023-05-07T05:20:56.971Z,81.51
2023-05-07T05:23:45.898Z,81.72
2023-05-07T05:26:35.461Z,82.29
2023-05-07T05:29:24.724Z,82.97
2023-05-07T05:32:13.082Z,82.69
2023-05-07T05:35:02.076Z,83.38
2023-05-07T05:37:52.761Z,83.86
2023-05-07T05:40:41.502Z,83.67
2023-05-07T05:43:30.075Z,84.35
2023-05-07T05:46:18.680Z,84.23
2023-05-07T05:49:07.157Z,84.00
2023-05-07T05:51:56.848Z,84.21
2023-05-07T05:54:48.321Z,84.00
2023-05-07T05:57:36.991Z,84.10
2023-05-07T06:00:25.667Z,84.08
2023-05-07T06:03:21.778Z,84.38
2023-05-07T06:06:10.393Z,83.82
2023-05-07T06:08:58.795Z,83.51
2023-05-07T06:11:55.616Z,83.10
2023-05-07T06:14:45.106Z,82.26
2023-05-07T06:17:34.113Z,83.26
2023-05-07T06:20:22.558Z,82.67
2023-05-07T06:23:12.165Z,82.40
2023-05-07T06:26:00.573Z,82.04
2023-05-07T06:28:55.782Z,82.08
2023-05-07T06:31:45.322Z,81.62
2023-05-07T06:34:33.748Z,82.21
2023-05-07T06:37:22.134Z,81.36
2023-05-07T06:40:20.806Z,81.48
2023-05-07T06:43:11.006Z,81.50
2023-05-07T06:46:18.566Z,81.73
2023-05-07T06:49:07.168Z,81.48
2023-05-07T06:51:56.543Z,81.99
2023-05-07T06:54:45.318Z,81.57
2023-05-07T06:57:37.322Z,81.80
2023-05-07T07:00:26.101Z,81.47
2023-05-07T07:03:18.789Z,81.28
2023-05-07T07:06:08.278Z,81.48
2023-05-07T07:08:56.790Z,81.36
2023-05-07T07:11:45.272Z,82.11
2023-05-07T07:14:33.742Z,81.61
2023-05-07T07:17:22.144Z,81.55
2023-05-07T07:20:13.203Z,81.83
2023-05-07T07:23:02.886Z,81.39
2023-05-07T07:25:51.393Z,81.31
2023-05-07T07:28:45.609Z,81.58
2023-05-07T07:31:36.539Z,80.25
2023-05-07T07:34:25.031Z,80.83
2023-05-07T07:37:14.819Z,80.25
2023-05-07T07:40:04.861Z,80.87
2023-05-07T07:42:55.121Z,79.43
2023-05-07T07:45:44.937Z,79.02
2023-05-07T07:48:33.476Z,79.99
2023-05-07T07:51:22.234Z,80.27
2023-05-07T07:54:14.193Z,80.00
2023-05-07T07:57:03.410Z,80.28
2023-05-07T07:59:54.419Z,80.57
2023-05-07T08:02:43.216Z,80.00
2023-05-07T08:05:35.487Z,80.08
2023-05-07T08:08:25.029Z,79.55
2023-05-07T08:11:16.711Z,80.02
2023-05-07T08:14:05.940Z,79.51
2023-05-07T08:16:54.929Z,78.93
2023-05-07T08:19:44.145Z,78.94
2023-05-07T08:22:36.364Z,77.88
2023-05-07T08:25:25.157Z,78.34
2023-05-07T08:28:15.016Z,78.14
2023-05-07T08:31:03.670Z,77.69
2023-05-07T08:33:56.692Z,78.00
2023-05-07T08:36:45.150Z,77.89
2023-05-07T08:39:36.747Z,76.88
2023-05-07T08:42:29.572Z,77.29
2023-05-07T08:45:20.273Z,75.71
2023-05-07T08:48:12.295Z,76.07
2023-05-07T08:51:01.093Z,76.29
2023-05-07T08:53:50.890Z,74.85
2023-05-07T08:56:45.254Z,74.29
2023-05-07T08:59:33.774Z,74.38
2023-05-07T09:02:23.667Z,74.24
2023-05-07T09:05:12.338Z,73.32
2023-05-07T09:08:01.475Z,73.20
2023-05-07T09:10:50.463Z,72.30
2023-05-07T09:13:39.918Z,72.15
2023-05-07T09:16:28.694Z,71.93
2023-05-07T09:19:24.804Z,71.73
2023-05-07T09:22:14.644Z,71.18
2023-05-07T09:25:13.357Z,71.53
2023-05-07T09:28:03.439Z,71.35
2023-05-07T09:30:52.302Z,69.79
2023-05-07T09:33:42.311Z,69.22
2023-05-07T09:36:34.131Z,69.78
2023-05-07T09:39:23.178Z,66.85
2023-05-07T09:42:12.516Z,67.63
2023-05-07T09:45:02.085Z,68.47
2023-05-07T09:47:58.522Z,66.32
2023-05-07T09:50:51.394Z,65.00
2023-05-07T09:53:44.223Z,63.99
2023-05-07T09:56:34.335Z,66.61
2023-05-07T09:59:23.798Z,61.10
2023-05-07T10:02:12.565Z,61.09
2023-05-07T10:05:08.444Z,60.57
2023-05-07T10:07:58.326Z,61.68
2023-05-07T10:10:49.287Z,60.22
2023-05-07T10:13:42.199Z,58.60
2023-05-07T10:16:33.715Z,58.71
2023-05-07T10:19:22.268Z,60.15
2023-05-07T10:22:16.171Z,58.08
2023-05-07T10:25:09.366Z,58.32
2023-05-07T10:28:03.523Z,58.14
2023-05-07T10:31:03.465Z,57.80
2023-05-07T10:33:59.119Z,58.73
2023-05-07T10:36:48.519Z,57.03
2023-05-07T10:39:37.443Z,56.15
2023-05-07T10:42:26.250Z,56.24
2023-05-07T10:45:18.576Z,54.40
2023-05-07T10:48:28.718Z,54.20
2023-05-07T10:51:23.167Z,56.71
2023-05-07T10:54:24.778Z,54.06
2023-05-07T10:57:37.788Z,52.91
2023-05-07T11:00:47.939Z,52.88
2023-05-07T11:04:15.222Z,49.03
2023-05-07T11:07:26.234Z,52.20
2023-05-07T11:10:17.735Z,49.99
2023-05-07T11:13:19.611Z,53.17
2023-05-07T11:16:21.013Z,50.77
2023-05-07T11:19:12.680Z,48.32
2023-05-07T11:22:09.472Z,53.45
2023-05-07T11:25:04.104Z,48.95
2023-05-07T11:27:52.792Z,49.52
2023-05-07T11:30:43.979Z,49.86
2023-05-07T11:33:37.069Z,50.79
2023-05-07T11:36:28.435Z,50.99
2023-05-07T11:39:27.785Z,50.08
2023-05-07T11:42:30.007Z,51.15
2023-05-07T11:45:25.735Z,50.92
2023-05-07T11:48:14.705Z,50.29
2023-05-07T11:51:06.637Z,51.81
2023-05-07T11:53:55.272Z,48.60
2023-05-07T11:56:43.586Z,49.59
2023-05-07T11:59:31.955Z,50.02
2023-05-07T12:02:20.392Z,49.26
2023-05-07T12:05:09.350Z,50.12
2023-05-07T12:08:00.196Z,50.57
2023-05-07T12:10:50.989Z,49.35
2023-05-07T12:13:39.587Z,50.26
2023-05-07T12:16:28.298Z,51.16
2023-05-07T12:19:16.933Z,50.32
2023-05-07T12:22:05.779Z,50.92
2023-05-07T12:25:00.703Z,50.03
2023-05-07T12:27:53.815Z,49.41
2023-05-07T12:30:42.327Z,48.21
2023-05-07T12:33:32.042Z,46.78
2023-05-07T12:36:22.150Z,47.96
2023-05-07T12:39:11.014Z,46.07
2023-05-07T12:42:01.877Z,47.85
2023-05-07T12:44:50.687Z,48.31
2023-05-07T12:47:39.178Z,47.67
2023-05-07T12:50:27.636Z,47.55
2023-05-07T12:53:16.162Z,49.07
2023-05-07T12:56:04.911Z,48.25
2023-05-07T12:58:59.494Z,47.51
2023-05-07T13:01:48.216Z,48.18
2023-05-07T13:04:37.077Z,47.67
2023-05-07T13:07:27.750Z,47.12
2023-05-07T13:10:17.071Z,48.95
2023-05-07T13:13:05.838Z,48.51
2023-05-07T13:15:55.648Z,48.30
2023-05-07T13:18:44.912Z,47.81
2023-05-07T13:21:33.869Z,46.07
2023-05-07T13:24:22.249Z,48.59
2023-05-07T13:27:10.669Z,46.69
2023-05-07T13:29:59.100Z,46.64
2023-05-07T13:32:49.039Z,47.86
2023-05-07T13:35:37.588Z,46.44
2023-05-07T13:38:26.032Z,47.06
2023-05-07T13:41:15.304Z,46.20
2023-05-07T13:44:03.783Z,46.45
2023-05-07T13:46:52.277Z,45.54
2023-05-07T13:49:42.060Z,46.50
2023-05-07T13:52:30.468Z,47.82
2023-05-07T13:55:19.656Z,47.16
2023-05-07T13:58:08.003Z,47.50
2023-05-07T14:00:56.423Z,48.10
2023-05-07T14:03:44.955Z,46.99
2023-05-07T14:06:34.779Z,46.27
2023-05-07T14:09:23.150Z,46.51
2023-05-07T14:12:11.584Z,47.23
2023-05-07T14:15:00.135Z,48.04
2023-05-07T14:17:48.921Z,46.03
2023-05-07T14:20:38.699Z,46.61
2023-05-07T14:23:28.809Z,46.00
2023-05-07T14:26:17.228Z,46.19
2023-05-07T14:29:05.672Z,46.45
2023-05-07T14:31:54.037Z,45.94
2023-05-07T14:34:42.438Z,46.67
2023-05-07T14:37:30.842Z,46.94
2023-05-07T14:40:20.601Z,46.59
2023-05-07T14:43:09.034Z,44.93
2023-05-07T14:45:57.448Z,45.88
2023-05-07T14:48:47.014Z,46.02
2023-05-07T14:51:35.414Z,46.18
2023-05-07T14:54:23.833Z,44.99
2023-05-07T14:57:15.752Z,46.25
2023-05-07T15:00:06.045Z,45.64
2023-05-07T15:02:54.563Z,45.87
2023-05-07T15:05:43.550Z,46.19
2023-05-07T15:08:31.898Z,45.21
2023-05-07T15:11:20.288Z,45.19
2023-05-07T15:14:10.177Z,46.26
2023-05-07T15:16:58.507Z,46.37
2023-05-07T15:19:46.881Z,45.92
2023-05-07T15:22:37.066Z,46.43
2023-05-07T15:25:25.507Z,46.47
2023-05-07T15:28:13.908Z,46.68
2023-05-07T15:31:03.631Z,46.11
2023-05-07T15:33:52.926Z,46.31
2023-05-07T15:36:41.348Z,48.36
2023-05-07T15:39:29.778Z,47.23
2023-05-07T15:42:18.201Z,47.30
2023-05-07T15:45:07.921Z,48.03
2023-05-07T15:47:57.739Z,47.17
2023-05-07T15:50:46.670Z,47.46
2023-05-07T15:53:35.755Z,47.78
2023-05-07T15:56:25.299Z,47.73
2023-05-07T15:59:15.473Z,47.88
2023-05-07T16:02:03.936Z,47.67
2023-05-07T16:04:53.696Z,47.68
2023-05-07T16:07:44.173Z,47.94
2023-05-07T16:10:32.611Z,47.99
2023-05-07T16:13:21.178Z,47.52
2023-05-07T16:16:09.814Z,47.70
2023-05-07T16:18:58.290Z,48.15
2023-05-07T16:21:48.284Z,48.00
2023-05-07T16:24:36.729Z,47.62
2023-05-07T16:27:25.221Z,47.86
2023-05-07T16:30:14.299Z,47.57
2023-05-07T16:33:02.783Z,47.77
2023-05-07T16:35:54.528Z,48.05
2023-05-07T16:38:44.400Z,47.39
2023-05-07T16:41:32.843Z,48.24
2023-05-07T16:44:21.382Z,48.38
2023-05-07T16:47:09.804Z,50.65
2023-05-07T16:49:58.980Z,51.64
2023-05-07T16:52:47.438Z,53.58
2023-05-07T16:55:39.437Z,53.67
2023-05-07T16:58:28.339Z,54.41
2023-05-07T17:01:18.943Z,55.56
2023-05-07T17:04:07.426Z,56.05
2023-05-07T17:06:57.813Z,56.47
2023-05-07T17:09:46.241Z,56.50
2023-05-07T17:12:37.685Z,56.78
2023-05-07T17:15:26.369Z,57.01
2023-05-07T17:18:15.373Z,57.58
2023-05-07T17:21:03.900Z,58.02
2023-05-07T17:23:52.254Z,58.33
2023-05-07T17:26:43.118Z,58.17
2023-05-07T17:29:34.080Z,58.11
2023-05-07T17:32:22.570Z,59.36
2023-05-07T17:35:11.240Z,58.59
2023-05-07T17:37:59.678Z,58.96
2023-05-07T17:40:48.526Z,58.61
2023-05-07T17:43:36.928Z,59.53
2023-05-07T17:46:26.806Z,59.11
2023-05-07T17:49:16.544Z,59.53
2023-05-07T17:52:05.204Z,59.44
2023-05-07T17:54:53.565Z,59.78
2023-05-07T17:57:41.931Z,59.80
2023-05-07T18:00:30.490Z,59.67
2023-05-07T18:03:20.527Z,60.21
2023-05-07T18:06:10.200Z,60.09
2023-05-07T18:08:58.802Z,60.76
2023-05-07T18:11:47.199Z,61.26
2023-05-07T18:14:35.700Z,61.26
2023-05-07T18:17:26.408Z,61.37
2023-05-07T18:20:16.481Z,62.10
2023-05-07T18:23:05.030Z,62.09
2023-05-07T18:25:53.586Z,61.83
2023-05-07T18:28:42.147Z,62.30
2023-05-07T18:31:30.566Z,62.29
2023-05-07T18:34:19.054Z,62.72
2023-05-07T18:37:08.799Z,63.47
2023-05-07T18:39:57.125Z,63.00
2023-05-07T18:42:45.588Z,63.40
2023-05-07T18:45:34.813Z,63.02
2023-05-07T18:48:23.210Z,63.57
2023-05-07T18:51:12.760Z,63.00
2023-05-07T18:54:03.325Z,63.50
2023-05-07T18:56:52.030Z,63.31
2023-05-07T18:59:40.475Z,63.02
2023-05-07T19:02:28.846Z,63.38
2023-05-07T19:05:18.446Z,63.44
2023-05-07T19:08:07.196Z,63.21
2023-05-07T19:10:57.715Z,63.41
2023-05-07T19:13:46.121Z,63.75
2023-05-07T19:16:34.534Z,63.44
2023-05-07T19:19:22.963Z,64.03
2023-05-07T19:22:11.479Z,64.27
2023-05-07T19:24:59.888Z,64.62
2023-05-07T19:27:50.945Z,64.41
2023-05-07T19:30:40.780Z,65.08
2023-05-07T19:33:29.899Z,65.43
2023-05-07T19:36:18.396Z,65.80
2023-05-07T19:39:06.783Z,65.83
2023-05-07T19:41:55.189Z,66.70
2023-05-07T19:44:44.946Z,66.75
2023-05-07T19:47:33.624Z,66.57
2023-05-07T19:50:22.285Z,67.10
2023-05-07T19:53:10.882Z,66.95
2023-05-07T19:56:04.513Z,67.36
2023-05-07T19:58:53.079Z,66.96
2023-05-07T20:01:42.906Z,67.56
2023-05-07T20:04:33.566Z,67.42
2023-05-07T20:07:21.893Z,67.92
2023-05-07T20:10:11.048Z,68.05
2023-05-07T20:12:59.671Z,67.43
2023-05-07T20:15:48.502Z,67.35
2023-05-07T20:18:38.222Z,67.65
2023-05-07T20:21:26.869Z,67.51
2023-05-07T20:24:15.279Z,67.84
2023-05-07T20:27:04.923Z,67.90
2023-05-07T20:29:53.599Z,67.39
2023-05-07T20:32:42.121Z,67.73
2023-05-07T20:35:32.232Z,67.10
2023-05-07T20:38:20.934Z,67.13
2023-05-07T20:41:10.634Z,66.78
2023-05-07T20:44:00.411Z,66.57
2023-05-07T20:46:48.825Z,66.30
2023-05-07T20:49:37.220Z,66.54
2023-05-07T20:52:27.004Z,66.03
2023-05-07T20:55:15.594Z,65.64
2023-05-07T20:58:03.940Z,65.90
2023-05-07T21:00:52.783Z,65.47
2023-05-07T21:03:41.399Z,65.77
2023-05-07T21:06:30.081Z,65.79
2023-05-07T21:09:19.905Z,65.36
2023-05-07T21:12:08.395Z,65.08
2023-05-07T21:14:58.053Z,64.68
2023-05-07T21:17:46.514Z,64.48
2023-05-07T21:20:35.037Z,65.11
2023-05-07T21:23:23.402Z,65.20
2023-05-07T21:26:18.914Z,64.77
2023-05-07T21:29:08.824Z,64.60
2023-05-07T21:31:57.284Z,64.80
2023-05-07T21:34:46.657Z,64.89
2023-05-07T21:37:35.011Z,64.52
2023-05-07T21:40:23.373Z,65.15
2023-05-07T21:43:13.102Z,65.24
2023-05-07T21:46:03.749Z,64.93
2023-05-07T21:48:52.121Z,65.39
2023-05-07T21:51:40.662Z,65.49
2023-05-07T21:54:29.047Z,65.21
2023-05-07T21:57:17.567Z,65.48
2023-05-07T22:00:09.219Z,65.06
2023-05-07T22:02:58.476Z,65.57
2023-05-07T22:05:48.083Z,65.35
2023-05-07T22:08:38.108Z,65.48
2023-05-07T22:11:26.659Z,64.77
2023-05-07T22:14:15.032Z,65.43
2023-05-07T22:17:04.774Z,64.90
2023-05-07T22:19:53.267Z,65.52
2023-05-07T22:22:51.232Z,65.40
2023-05-07T22:25:40.517Z,65.51
2023-05-07T22:28:28.907Z,65.50
2023-05-07T22:31:17.319Z,64.75
2023-05-07T22:34:07.098Z,64.79
2023-05-07T22:36:55.448Z,65.08
2023-05-07T22:39:43.876Z,65.17
2023-05-07T22:42:32.255Z,64.89
2023-05-07T22:45:21.146Z,64.49
2023-05-07T22:48:09.952Z,64.41
2023-05-07T22:50:59.742Z,64.98
2023-05-07T22:53:48.137Z,65.14
2023-05-07T22:56:36.538Z,65.00
2023-05-07T22:59:25.000Z,64.94
2023-05-07T23:02:13.487Z,64.70
2023-05-07T23:05:02.184Z,65.05
2023-05-07T23:07:52.179Z,65.32
2023-05-07T23:10:40.589Z,65.05
2023-05-07T23:13:28.974Z,64.81
2023-05-07T23:16:17.340Z,64.95
2023-05-07T23:19:05.744Z,64.89
2023-05-07T23:21:54.096Z,64.93
2023-05-07T23:24:44.089Z,65.52
2023-05-07T23:27:32.474Z,65.89
2023-05-07T23:30:21.094Z,65.82
2023-05-07T23:33:09.586Z,66.00
2023-05-07T23:36:00.993Z,65.77
2023-05-07T23:38:49.338Z,65.95
2023-05-07T23:41:39.043Z,66.50
2023-05-07T23:44:27.408Z,66.99
2023-05-07T23:47:15.897Z,66.89
2023-05-07T23:50:04.409Z,66.45
2023-05-07T23:52:52.739Z,66.95
2023-05-07T23:55:41.177Z,66.92
2023-05-07T23:58:30.937Z,67.23
